sensor_id;sensor_type;location;lat;lon;timestamp;P1;durP1;ratioP1;P2;durP2;ratioP2
36827;SDS011;22766;48.042;11.192;2022-07-26T00:00:09;2.75;;;1.77;;
36827;SDS011;22766;48.042;11.192;2022-07-26T00:02:38;4.63;;;2.20;;
36827;SDS011;22766;48.042;11.192;2022-07-26T00:05:13;6.18;;;2.10;;
36827;SDS011;22766;48.042;11.192;2022-07-26T00:07:44;4.70;;;2.45;;
36827;SDS011;22766;48.042;11.192;2022-07-26T00:10:11;4.65;;;2.60;;
36827;SDS011;22766;48.042;11.192;2022-07-26T00:12:38;4.25;;;2.13;;
36827;SDS011;22766;48.042;11.192;2022-07-26T00:15:06;6.90;;;2.78;;
36827;SDS011;22766;48.042;11.192;2022-07-26T00:17:35;6.07;;;2.28;;
36827;SDS011;22766;48.042;11.192;2022-07-26T00:20:02;3.90;;;2.63;;
36827;SDS011;22766;48.042;11.192;2022-07-26T00:22:29;4.20;;;2.40;;
36827;SDS011;22766;48.042;11.192;2022-07-26T00:25:02;3.35;;;2.17;;
36827;SDS011;22766;48.042;11.192;2022-07-26T00:27:32;7.32;;;3.22;;
36827;SDS011;22766;48.042;11.192;2022-07-26T00:30:06;4.20;;;2.20;;
36827;SDS011;22766;48.042;11.192;2022-07-26T00:32:34;4.88;;;2.55;;
36827;SDS011;22766;48.042;11.192;2022-07-26T00:35:02;4.18;;;2.03;;
36827;SDS011;22766;48.042;11.192;2022-07-26T00:37:29;2.80;;;1.70;;
36827;SDS011;22766;48.042;11.192;2022-07-26T00:39:56;5.60;;;2.40;;
36827;SDS011;22766;48.042;11.192;2022-07-26T00:42:23;4.78;;;2.15;;
36827;SDS011;22766;48.042;11.192;2022-07-26T00:44:50;2.42;;;1.75;;
36827;SDS011;22766;48.042;11.192;2022-07-26T00:47:16;3.90;;;2.05;;
36827;SDS011;22766;48.042;11.192;2022-07-26T00:49:43;4.00;;;1.92;;
36827;SDS011;22766;48.042;11.192;2022-07-26T00:52:10;2.92;;;1.65;;
36827;SDS011;22766;48.042;11.192;2022-07-26T00:54:38;3.65;;;1.95;;
36827;SDS011;22766;48.042;11.192;2022-07-26T00:57:09;4.55;;;1.73;;
36827;SDS011;22766;48.042;11.192;2022-07-26T00:59:35;4.30;;;1.60;;
36827;SDS011;22766;48.042;11.192;2022-07-26T01:02:03;3.22;;;1.50;;
36827;SDS011;22766;48.042;11.192;2022-07-26T01:04:32;3.20;;;1.50;;
36827;SDS011;22766;48.042;11.192;2022-07-26T01:06:59;2.75;;;1.75;;
36827;SDS011;22766;48.042;11.192;2022-07-26T01:09:40;4.13;;;1.35;;
36827;SDS011;22766;48.042;11.192;2022-07-26T01:12:07;2.35;;;1.40;;
36827;SDS011;22766;48.042;11.192;2022-07-26T01:14:34;2.08;;;0.90;;
36827;SDS011;22766;48.042;11.192;2022-07-26T01:17:00;1.90;;;1.00;;
36827;SDS011;22766;48.042;11.192;2022-07-26T01:19:27;1.50;;;1.00;;
36827;SDS011;22766;48.042;11.192;2022-07-26T01:21:54;1.98;;;1.08;;
36827;SDS011;22766;48.042;11.192;2022-07-26T01:24:20;2.42;;;1.05;;
36827;SDS011;22766;48.042;11.192;2022-07-26T01:26:47;2.03;;;1.00;;
36827;SDS011;22766;48.042;11.192;2022-07-26T01:29:14;6.35;;;1.50;;
36827;SDS011;22766;48.042;11.192;2022-07-26T01:31:40;2.90;;;1.05;;
36827;SDS011;22766;48.042;11.192;2022-07-26T01:34:07;2.50;;;0.85;;
36827;SDS011;22766;48.042;11.192;2022-07-26T01:36:34;2.28;;;1.20;;
36827;SDS011;22766;48.042;11.192;2022-07-26T01:39:04;2.88;;;1.30;;
36827;SDS011;22766;48.042;11.192;2022-07-26T01:41:32;1.65;;;1.00;;
36827;SDS011;22766;48.042;11.192;2022-07-26T01:44:04;4.88;;;1.40;;
36827;SDS011;22766;48.042;11.192;2022-07-26T01:46:33;1.85;;;1.10;;
36827;SDS011;22766;48.042;11.192;2022-07-26T01:49:01;2.30;;;1.25;;
36827;SDS011;22766;48.042;11.192;2022-07-26T01:51:28;2.38;;;1.33;;
36827;SDS011;22766;48.042;11.192;2022-07-26T01:53:55;3.08;;;1.77;;
36827;SDS011;22766;48.042;11.192;2022-07-26T01:56:22;3.03;;;1.92;;
36827;SDS011;22766;48.042;11.192;2022-07-26T01:58:49;2.35;;;1.17;;
36827;SDS011;22766;48.042;11.192;2022-07-26T02:01:16;2.22;;;1.13;;
36827;SDS011;22766;48.042;11.192;2022-07-26T02:04:02;3.22;;;1.45;;
36827;SDS011;22766;48.042;11.192;2022-07-26T02:06:30;2.13;;;1.20;;
36827;SDS011;22766;48.042;11.192;2022-07-26T02:08:57;3.13;;;1.27;;
36827;SDS011;22766;48.042;11.192;2022-07-26T02:11:24;2.47;;;1.17;;
36827;SDS011;22766;48.042;11.192;2022-07-26T02:13:51;2.58;;;1.50;;
36827;SDS011;22766;48.042;11.192;2022-07-26T02:16:18;2.60;;;1.45;;
36827;SDS011;22766;48.042;11.192;2022-07-26T02:18:45;3.53;;;1.30;;
36827;SDS011;22766;48.042;11.192;2022-07-26T02:21:12;5.13;;;1.30;;
36827;SDS011;22766;48.042;11.192;2022-07-26T02:23:39;2.58;;;1.50;;
36827;SDS011;22766;48.042;11.192;2022-07-26T02:26:07;4.63;;;1.50;;
36827;SDS011;22766;48.042;11.192;2022-07-26T02:28:34;3.10;;;1.77;;
36827;SDS011;22766;48.042;11.192;2022-07-26T02:31:00;3.08;;;1.40;;
36827;SDS011;22766;48.042;11.192;2022-07-26T02:33:27;2.03;;;1.25;;
36827;SDS011;22766;48.042;11.192;2022-07-26T02:35:54;4.88;;;1.60;;
36827;SDS011;22766;48.042;11.192;2022-07-26T02:38:21;3.53;;;1.80;;
36827;SDS011;22766;48.042;11.192;2022-07-26T02:40:50;5.75;;;1.70;;
36827;SDS011;22766;48.042;11.192;2022-07-26T02:43:17;3.20;;;1.70;;
36827;SDS011;22766;48.042;11.192;2022-07-26T02:45:44;5.05;;;1.83;;
36827;SDS011;22766;48.042;11.192;2022-07-26T02:48:27;4.28;;;1.85;;
36827;SDS011;22766;48.042;11.192;2022-07-26T02:50:55;3.42;;;1.65;;
36827;SDS011;22766;48.042;11.192;2022-07-26T02:53:22;2.38;;;1.50;;
36827;SDS011;22766;48.042;11.192;2022-07-26T02:55:48;3.67;;;1.60;;
36827;SDS011;22766;48.042;11.192;2022-07-26T02:58:15;3.20;;;1.80;;
36827;SDS011;22766;48.042;11.192;2022-07-26T03:00:42;4.10;;;1.88;;
36827;SDS011;22766;48.042;11.192;2022-07-26T03:03:09;5.13;;;1.80;;
36827;SDS011;22766;48.042;11.192;2022-07-26T03:05:39;4.95;;;1.67;;
36827;SDS011;22766;48.042;11.192;2022-07-26T03:08:06;8.18;;;1.83;;
36827;SDS011;22766;48.042;11.192;2022-07-26T03:10:33;3.67;;;1.92;;
36827;SDS011;22766;48.042;11.192;2022-07-26T03:13:00;3.65;;;1.70;;
36827;SDS011;22766;48.042;11.192;2022-07-26T03:15:27;4.20;;;1.90;;
36827;SDS011;22766;48.042;11.192;2022-07-26T03:17:54;3.78;;;1.48;;
36827;SDS011;22766;48.042;11.192;2022-07-26T03:20:21;4.03;;;1.92;;
36827;SDS011;22766;48.042;11.192;2022-07-26T03:22:48;6.55;;;1.88;;
36827;SDS011;22766;48.042;11.192;2022-07-26T03:25:14;4.85;;;2.08;;
36827;SDS011;22766;48.042;11.192;2022-07-26T03:27:41;3.55;;;1.90;;
36827;SDS011;22766;48.042;11.192;2022-07-26T03:30:08;3.17;;;2.00;;
36827;SDS011;22766;48.042;11.192;2022-07-26T03:32:35;7.82;;;1.80;;
36827;SDS011;22766;48.042;11.192;2022-07-26T03:35:02;3.72;;;2.20;;
36827;SDS011;22766;48.042;11.192;2022-07-26T03:37:30;3.10;;;1.77;;
36827;SDS011;22766;48.042;11.192;2022-07-26T03:40:12;3.30;;;2.05;;
36827;SDS011;22766;48.042;11.192;2022-07-26T03:42:42;5.13;;;2.30;;
36827;SDS011;22766;48.042;11.192;2022-07-26T03:45:13;3.30;;;2.05;;
36827;SDS011;22766;48.042;11.192;2022-07-26T03:47:43;7.60;;;2.20;;
36827;SDS011;22766;48.042;11.192;2022-07-26T03:50:11;4.05;;;2.10;;
36827;SDS011;22766;48.042;11.192;2022-07-26T03:52:39;4.35;;;1.55;;
36827;SDS011;22766;48.042;11.192;2022-07-26T03:55:06;3.63;;;1.88;;
36827;SDS011;22766;48.042;11.192;2022-07-26T03:57:51;3.92;;;2.13;;
36827;SDS011;22766;48.042;11.192;2022-07-26T04:00:18;5.03;;;2.10;;
36827;SDS011;22766;48.042;11.192;2022-07-26T04:02:45;2.78;;;1.80;;
36827;SDS011;22766;48.042;11.192;2022-07-26T04:05:11;2.67;;;1.70;;
36827;SDS011;22766;48.042;11.192;2022-07-26T04:07:42;3.83;;;1.80;;
36827;SDS011;22766;48.042;11.192;2022-07-26T04:10:19;4.22;;;2.20;;
36827;SDS011;22766;48.042;11.192;2022-07-26T04:12:47;2.92;;;1.90;;
36827;SDS011;22766;48.042;11.192;2022-07-26T04:15:14;3.85;;;1.88;;
36827;SDS011;22766;48.042;11.192;2022-07-26T04:17:42;3.70;;;2.22;;
36827;SDS011;22766;48.042;11.192;2022-07-26T04:20:09;1.80;;;1.55;;
36827;SDS011;22766;48.042;11.192;2022-07-26T04:22:38;5.20;;;2.05;;
36827;SDS011;22766;48.042;11.192;2022-07-26T04:25:08;4.35;;;1.88;;
36827;SDS011;22766;48.042;11.192;2022-07-26T04:27:36;3.22;;;2.10;;
36827;SDS011;22766;48.042;11.192;2022-07-26T04:30:04;3.92;;;2.08;;
36827;SDS011;22766;48.042;11.192;2022-07-26T04:32:37;3.60;;;1.90;;
36827;SDS011;22766;48.042;11.192;2022-07-26T04:35:04;4.18;;;1.75;;
36827;SDS011;22766;48.042;11.192;2022-07-26T04:37:37;5.13;;;2.17;;
36827;SDS011;22766;48.042;11.192;2022-07-26T04:40:05;2.58;;;1.75;;
36827;SDS011;22766;48.042;11.192;2022-07-26T04:42:33;4.55;;;1.90;;
36827;SDS011;22766;48.042;11.192;2022-07-26T04:45:00;5.20;;;2.33;;
36827;SDS011;22766;48.042;11.192;2022-07-26T04:47:33;4.80;;;1.77;;
36827;SDS011;22766;48.042;11.192;2022-07-26T04:50:01;4.22;;;1.70;;
36827;SDS011;22766;48.042;11.192;2022-07-26T04:52:29;4.25;;;1.77;;
36827;SDS011;22766;48.042;11.192;2022-07-26T04:54:55;2.97;;;1.88;;
36827;SDS011;22766;48.042;11.192;2022-07-26T04:57:22;5.65;;;2.08;;
36827;SDS011;22766;48.042;11.192;2022-07-26T04:59:49;6.18;;;1.77;;
36827;SDS011;22766;48.042;11.192;2022-07-26T05:02:28;2.45;;;1.60;;
36827;SDS011;22766;48.042;11.192;2022-07-26T05:04:55;5.10;;;1.65;;
36827;SDS011;22766;48.042;11.192;2022-07-26T05:07:22;3.63;;;2.03;;
36827;SDS011;22766;48.042;11.192;2022-07-26T05:09:49;4.47;;;1.50;;
36827;SDS011;22766;48.042;11.192;2022-07-26T05:12:15;5.20;;;2.00;;
36827;SDS011;22766;48.042;11.192;2022-07-26T05:14:42;3.72;;;1.90;;
36827;SDS011;22766;48.042;11.192;2022-07-26T05:17:11;2.45;;;1.50;;
36827;SDS011;22766;48.042;11.192;2022-07-26T05:22:14;1.80;;;1.10;;
36827;SDS011;22766;48.042;11.192;2022-07-26T05:24:41;4.97;;;1.80;;
36827;SDS011;22766;48.042;11.192;2022-07-26T05:27:07;3.33;;;1.70;;
36827;SDS011;22766;48.042;11.192;2022-07-26T05:29:34;2.88;;;1.60;;
36827;SDS011;22766;48.042;11.192;2022-07-26T05:32:01;3.08;;;1.70;;
36827;SDS011;22766;48.042;11.192;2022-07-26T05:34:27;3.58;;;1.80;;
36827;SDS011;22766;48.042;11.192;2022-07-26T05:36:54;4.07;;;2.10;;
36827;SDS011;22766;48.042;11.192;2022-07-26T05:39:21;2.10;;;1.63;;
36827;SDS011;22766;48.042;11.192;2022-07-26T05:41:48;5.03;;;2.42;;
36827;SDS011;22766;48.042;11.192;2022-07-26T05:44:14;5.68;;;1.60;;
36827;SDS011;22766;48.042;11.192;2022-07-26T05:46:43;6.47;;;2.17;;
36827;SDS011;22766;48.042;11.192;2022-07-26T05:49:10;4.03;;;1.60;;
36827;SDS011;22766;48.042;11.192;2022-07-26T05:51:37;3.20;;;2.00;;
36827;SDS011;22766;48.042;11.192;2022-07-26T05:54:03;4.35;;;1.80;;
36827;SDS011;22766;48.042;11.192;2022-07-26T05:56:30;2.72;;;1.98;;
36827;SDS011;22766;48.042;11.192;2022-07-26T05:58:57;2.70;;;1.67;;
36827;SDS011;22766;48.042;11.192;2022-07-26T06:01:23;3.13;;;2.08;;
36827;SDS011;22766;48.042;11.192;2022-07-26T06:03:51;2.38;;;1.35;;
36827;SDS011;22766;48.042;11.192;2022-07-26T06:06:18;3.90;;;1.80;;
36827;SDS011;22766;48.042;11.192;2022-07-26T06:08:45;3.33;;;1.90;;
36827;SDS011;22766;48.042;11.192;2022-07-26T06:11:11;3.08;;;2.03;;
36827;SDS011;22766;48.042;11.192;2022-07-26T06:13:38;2.17;;;1.33;;
36827;SDS011;22766;48.042;11.192;2022-07-26T06:16:05;3.45;;;1.60;;
36827;SDS011;22766;48.042;11.192;2022-07-26T06:18:31;3.70;;;1.77;;
36827;SDS011;22766;48.042;11.192;2022-07-26T06:20:58;3.10;;;1.60;;
36827;SDS011;22766;48.042;11.192;2022-07-26T06:23:28;4.25;;;1.85;;
36827;SDS011;22766;48.042;11.192;2022-07-26T06:26:00;3.95;;;1.60;;
36827;SDS011;22766;48.042;11.192;2022-07-26T06:28:27;3.38;;;1.55;;
36827;SDS011;22766;48.042;11.192;2022-07-26T06:30:54;3.03;;;1.42;;
36827;SDS011;22766;48.042;11.192;2022-07-26T06:33:20;3.13;;;1.60;;
36827;SDS011;22766;48.042;11.192;2022-07-26T06:35:47;3.03;;;1.63;;
36827;SDS011;22766;48.042;11.192;2022-07-26T06:38:14;3.10;;;1.75;;
36827;SDS011;22766;48.042;11.192;2022-07-26T06:40:40;4.70;;;1.70;;
36827;SDS011;22766;48.042;11.192;2022-07-26T06:43:07;3.28;;;1.75;;
36827;SDS011;22766;48.042;11.192;2022-07-26T06:45:33;4.43;;;1.65;;
36827;SDS011;22766;48.042;11.192;2022-07-26T06:48:00;2.85;;;1.55;;
36827;SDS011;22766;48.042;11.192;2022-07-26T06:50:27;5.45;;;1.70;;
36827;SDS011;22766;48.042;11.192;2022-07-26T06:52:54;8.75;;;1.90;;
36827;SDS011;22766;48.042;11.192;2022-07-26T06:55:21;2.85;;;1.77;;
36827;SDS011;22766;48.042;11.192;2022-07-26T06:57:47;4.85;;;1.63;;
36827;SDS011;22766;48.042;11.192;2022-07-26T07:00:16;4.40;;;1.70;;
36827;SDS011;22766;48.042;11.192;2022-07-26T07:02:43;4.05;;;1.50;;
36827;SDS011;22766;48.042;11.192;2022-07-26T07:05:09;1.65;;;1.38;;
36827;SDS011;22766;48.042;11.192;2022-07-26T07:07:37;2.47;;;1.45;;
36827;SDS011;22766;48.042;11.192;2022-07-26T07:10:07;3.80;;;1.00;;
36827;SDS011;22766;48.042;11.192;2022-07-26T07:12:34;3.25;;;1.45;;
36827;SDS011;22766;48.042;11.192;2022-07-26T07:15:01;1.58;;;1.00;;
36827;SDS011;22766;48.042;11.192;2022-07-26T07:17:28;2.33;;;1.17;;
36827;SDS011;22766;48.042;11.192;2022-07-26T07:19:55;3.95;;;1.40;;
36827;SDS011;22766;48.042;11.192;2022-07-26T07:22:21;2.05;;;0.98;;
36827;SDS011;22766;48.042;11.192;2022-07-26T07:24:48;2.85;;;1.30;;
36827;SDS011;22766;48.042;11.192;2022-07-26T07:27:15;3.10;;;1.48;;
36827;SDS011;22766;48.042;11.192;2022-07-26T07:29:42;6.00;;;1.27;;
36827;SDS011;22766;48.042;11.192;2022-07-26T07:32:08;3.28;;;1.20;;
36827;SDS011;22766;48.042;11.192;2022-07-26T07:34:45;6.10;;;1.77;;
36827;SDS011;22766;48.042;11.192;2022-07-26T07:37:13;4.72;;;1.45;;
36827;SDS011;22766;48.042;11.192;2022-07-26T07:39:41;4.50;;;1.50;;
36827;SDS011;22766;48.042;11.192;2022-07-26T07:42:07;2.40;;;1.30;;
36827;SDS011;22766;48.042;11.192;2022-07-26T07:44:34;1.70;;;0.90;;
36827;SDS011;22766;48.042;11.192;2022-07-26T07:47:01;1.88;;;1.13;;
36827;SDS011;22766;48.042;11.192;2022-07-26T07:49:27;2.58;;;1.00;;
36827;SDS011;22766;48.042;11.192;2022-07-26T07:51:54;2.83;;;1.40;;
36827;SDS011;22766;48.042;11.192;2022-07-26T07:54:21;1.88;;;1.00;;
36827;SDS011;22766;48.042;11.192;2022-07-26T07:56:50;2.50;;;1.20;;
36827;SDS011;22766;48.042;11.192;2022-07-26T07:59:18;2.58;;;1.10;;
36827;SDS011;22766;48.042;11.192;2022-07-26T08:01:48;2.08;;;1.15;;
36827;SDS011;22766;48.042;11.192;2022-07-26T08:04:15;3.10;;;1.20;;
36827;SDS011;22766;48.042;11.192;2022-07-26T08:06:42;3.80;;;1.10;;
36827;SDS011;22766;48.042;11.192;2022-07-26T08:09:16;1.88;;;1.02;;
36827;SDS011;22766;48.042;11.192;2022-07-26T08:11:44;3.22;;;1.30;;
36827;SDS011;22766;48.042;11.192;2022-07-26T08:14:16;2.80;;;1.20;;
36827;SDS011;22766;48.042;11.192;2022-07-26T08:16:43;1.75;;;0.93;;
36827;SDS011;22766;48.042;11.192;2022-07-26T08:19:10;3.97;;;1.35;;
36827;SDS011;22766;48.042;11.192;2022-07-26T08:21:37;2.38;;;1.10;;
36827;SDS011;22766;48.042;11.192;2022-07-26T08:24:05;1.70;;;1.05;;
36827;SDS011;22766;48.042;11.192;2022-07-26T08:26:31;4.25;;;1.20;;
36827;SDS011;22766;48.042;11.192;2022-07-26T08:28:58;4.05;;;2.00;;
36827;SDS011;22766;48.042;11.192;2022-07-26T08:31:26;2.05;;;0.93;;
36827;SDS011;22766;48.042;11.192;2022-07-26T08:33:54;2.75;;;1.05;;
36827;SDS011;22766;48.042;11.192;2022-07-26T08:36:21;2.17;;;1.08;;
36827;SDS011;22766;48.042;11.192;2022-07-26T08:38:48;3.25;;;1.00;;
36827;SDS011;22766;48.042;11.192;2022-07-26T08:41:18;3.20;;;0.98;;
36827;SDS011;22766;48.042;11.192;2022-07-26T08:43:45;0.65;;;0.50;;
36827;SDS011;22766;48.042;11.192;2022-07-26T08:46:23;2.88;;;1.20;;
36827;SDS011;22766;48.042;11.192;2022-07-26T08:48:53;1.38;;;0.88;;
36827;SDS011;22766;48.042;11.192;2022-07-26T08:51:21;2.15;;;0.70;;
36827;SDS011;22766;48.042;11.192;2022-07-26T08:53:50;3.15;;;0.90;;
36827;SDS011;22766;48.042;11.192;2022-07-26T08:56:29;1.70;;;0.80;;
36827;SDS011;22766;48.042;11.192;2022-07-26T08:58:55;1.67;;;0.98;;
36827;SDS011;22766;48.042;11.192;2022-07-26T09:01:22;4.03;;;1.17;;
36827;SDS011;22766;48.042;11.192;2022-07-26T09:03:49;4.05;;;1.10;;
36827;SDS011;22766;48.042;11.192;2022-07-26T09:06:19;1.77;;;1.25;;
36827;SDS011;22766;48.042;11.192;2022-07-26T09:08:51;2.05;;;0.80;;
36827;SDS011;22766;48.042;11.192;2022-07-26T09:13:59;1.75;;;0.65;;
36827;SDS011;22766;48.042;11.192;2022-07-26T09:16:27;1.48;;;0.90;;
36827;SDS011;22766;48.042;11.192;2022-07-26T09:18:54;2.70;;;0.77;;
36827;SDS011;22766;48.042;11.192;2022-07-26T09:21:38;2.13;;;1.05;;
36827;SDS011;22766;48.042;11.192;2022-07-26T09:24:05;1.88;;;0.93;;
36827;SDS011;22766;48.042;11.192;2022-07-26T09:26:32;2.25;;;1.02;;
36827;SDS011;22766;48.042;11.192;2022-07-26T09:29:06;1.58;;;0.90;;
36827;SDS011;22766;48.042;11.192;2022-07-26T09:31:38;2.92;;;0.90;;
36827;SDS011;22766;48.042;11.192;2022-07-26T09:34:05;1.63;;;0.70;;
36827;SDS011;22766;48.042;11.192;2022-07-26T09:36:36;1.38;;;0.90;;
36827;SDS011;22766;48.042;11.192;2022-07-26T09:39:16;1.85;;;0.70;;
36827;SDS011;22766;48.042;11.192;2022-07-26T09:41:55;2.65;;;1.20;;
36827;SDS011;22766;48.042;11.192;2022-07-26T09:44:42;1.05;;;0.70;;
36827;SDS011;22766;48.042;11.192;2022-07-26T09:47:13;2.72;;;1.00;;
36827;SDS011;22766;48.042;11.192;2022-07-26T09:49:43;1.35;;;0.90;;
36827;SDS011;22766;48.042;11.192;2022-07-26T09:52:17;2.03;;;0.90;;
36827;SDS011;22766;48.042;11.192;2022-07-26T09:54:48;1.75;;;0.82;;
36827;SDS011;22766;48.042;11.192;2022-07-26T09:57:16;1.55;;;0.80;;
36827;SDS011;22766;48.042;11.192;2022-07-26T09:59:44;1.98;;;1.20;;
36827;SDS011;22766;48.042;11.192;2022-07-26T10:02:12;1.80;;;1.00;;
36827;SDS011;22766;48.042;11.192;2022-07-26T10:04:40;2.35;;;1.30;;
36827;SDS011;22766;48.042;11.192;2022-07-26T10:07:08;2.45;;;1.13;;
36827;SDS011;22766;48.042;11.192;2022-07-26T10:09:49;1.52;;;1.00;;
36827;SDS011;22766;48.042;11.192;2022-07-26T10:12:22;1.85;;;0.73;;
36827;SDS011;22766;48.042;11.192;2022-07-26T10:14:56;0.90;;;0.85;;
36827;SDS011;22766;48.042;11.192;2022-07-26T10:20:04;1.17;;;0.90;;
36827;SDS011;22766;48.042;11.192;2022-07-26T10:22:45;1.65;;;0.90;;
36827;SDS011;22766;48.042;11.192;2022-07-26T10:30:21;1.52;;;0.90;;
36827;SDS011;22766;48.042;11.192;2022-07-26T10:33:01;2.63;;;1.05;;
36827;SDS011;22766;48.042;11.192;2022-07-26T10:35:30;1.00;;;0.90;;
36827;SDS011;22766;48.042;11.192;2022-07-26T10:37:58;0.88;;;0.80;;
36827;SDS011;22766;48.042;11.192;2022-07-26T10:40:25;1.75;;;0.90;;
36827;SDS011;22766;48.042;11.192;2022-07-26T10:43:14;1.65;;;0.98;;
36827;SDS011;22766;48.042;11.192;2022-07-26T10:51:25;2.55;;;1.02;;
36827;SDS011;22766;48.042;11.192;2022-07-26T10:54:00;1.98;;;1.10;;
36827;SDS011;22766;48.042;11.192;2022-07-26T10:56:28;2.35;;;1.02;;
36827;SDS011;22766;48.042;11.192;2022-07-26T10:58:59;2.33;;;1.75;;
36827;SDS011;22766;48.042;11.192;2022-07-26T11:04:00;1.52;;;1.00;;
36827;SDS011;22766;48.042;11.192;2022-07-26T11:06:27;2.72;;;1.05;;
36827;SDS011;22766;48.042;11.192;2022-07-26T11:08:57;1.83;;;1.00;;
36827;SDS011;22766;48.042;11.192;2022-07-26T11:11:35;4.55;;;1.08;;
36827;SDS011;22766;48.042;11.192;2022-07-26T11:14:06;1.98;;;0.98;;
36827;SDS011;22766;48.042;11.192;2022-07-26T11:16:36;1.85;;;1.10;;
36827;SDS011;22766;48.042;11.192;2022-07-26T11:19:14;1.48;;;0.90;;
36827;SDS011;22766;48.042;11.192;2022-07-26T11:21:53;1.40;;;0.90;;
36827;SDS011;22766;48.042;11.192;2022-07-26T11:24:21;1.52;;;0.85;;
36827;SDS011;22766;48.042;11.192;2022-07-26T11:26:48;1.90;;;1.10;;
36827;SDS011;22766;48.042;11.192;2022-07-26T11:29:16;1.95;;;1.13;;
36827;SDS011;22766;48.042;11.192;2022-07-26T11:32:14;7.63;;;0.90;;
36827;SDS011;22766;48.042;11.192;2022-07-26T11:34:44;1.08;;;0.90;;
36827;SDS011;22766;48.042;11.192;2022-07-26T11:37:11;2.60;;;1.17;;
36827;SDS011;22766;48.042;11.192;2022-07-26T11:39:39;2.13;;;0.90;;
36827;SDS011;22766;48.042;11.192;2022-07-26T11:42:09;1.60;;;0.80;;
36827;SDS011;22766;48.042;11.192;2022-07-26T11:44:41;3.05;;;0.95;;
36827;SDS011;22766;48.042;11.192;2022-07-26T11:47:13;1.85;;;0.88;;
36827;SDS011;22766;48.042;11.192;2022-07-26T11:49:51;1.38;;;1.05;;
36827;SDS011;22766;48.042;11.192;2022-07-26T11:52:39;1.27;;;0.90;;
36827;SDS011;22766;48.042;11.192;2022-07-26T11:55:05;3.10;;;1.10;;
36827;SDS011;22766;48.042;11.192;2022-07-26T11:57:33;1.85;;;1.20;;
36827;SDS011;22766;48.042;11.192;2022-07-26T11:59:59;2.25;;;1.20;;
36827;SDS011;22766;48.042;11.192;2022-07-26T12:02:36;4.85;;;1.33;;
36827;SDS011;22766;48.042;11.192;2022-07-26T12:07:58;2.72;;;1.58;;
36827;SDS011;22766;48.042;11.192;2022-07-26T12:10:29;2.85;;;1.42;;
36827;SDS011;22766;48.042;11.192;2022-07-26T12:13:09;3.00;;;1.48;;
36827;SDS011;22766;48.042;11.192;2022-07-26T12:15:47;3.13;;;1.48;;
36827;SDS011;22766;48.042;11.192;2022-07-26T12:21:15;3.40;;;1.70;;
36827;SDS011;22766;48.042;11.192;2022-07-26T12:23:43;2.92;;;1.73;;
36827;SDS011;22766;48.042;11.192;2022-07-26T12:26:20;3.45;;;1.50;;
36827;SDS011;22766;48.042;11.192;2022-07-26T12:28:54;2.60;;;1.70;;
36827;SDS011;22766;48.042;11.192;2022-07-26T12:31:31;2.90;;;1.67;;
36827;SDS011;22766;48.042;11.192;2022-07-26T12:33:59;2.33;;;1.80;;
36827;SDS011;22766;48.042;11.192;2022-07-26T12:36:26;2.22;;;1.33;;
36827;SDS011;22766;48.042;11.192;2022-07-26T12:38:56;2.03;;;1.50;;
36827;SDS011;22766;48.042;11.192;2022-07-26T12:41:37;3.30;;;2.05;;
36827;SDS011;22766;48.042;11.192;2022-07-26T12:44:05;3.90;;;1.90;;
36827;SDS011;22766;48.042;11.192;2022-07-26T12:46:34;3.05;;;1.50;;
36827;SDS011;22766;48.042;11.192;2022-07-26T12:49:01;2.60;;;1.50;;
36827;SDS011;22766;48.042;11.192;2022-07-26T12:51:29;3.38;;;1.48;;
36827;SDS011;22766;48.042;11.192;2022-07-26T12:53:56;2.10;;;1.15;;
36827;SDS011;22766;48.042;11.192;2022-07-26T12:56:22;2.42;;;1.20;;
36827;SDS011;22766;48.042;11.192;2022-07-26T12:58:49;2.70;;;1.40;;
36827;SDS011;22766;48.042;11.192;2022-07-26T13:01:16;3.28;;;1.23;;
36827;SDS011;22766;48.042;11.192;2022-07-26T13:03:43;2.28;;;1.42;;
36827;SDS011;22766;48.042;11.192;2022-07-26T13:06:09;2.83;;;1.63;;
36827;SDS011;22766;48.042;11.192;2022-07-26T13:08:36;1.13;;;0.80;;
36827;SDS011;22766;48.042;11.192;2022-07-26T13:11:03;2.10;;;1.05;;
36827;SDS011;22766;48.042;11.192;2022-07-26T13:13:29;1.45;;;1.08;;
36827;SDS011;22766;48.042;11.192;2022-07-26T13:15:56;2.65;;;1.27;;
36827;SDS011;22766;48.042;11.192;2022-07-26T13:18:23;1.83;;;1.30;;
36827;SDS011;22766;48.042;11.192;2022-07-26T13:20:49;1.73;;;1.00;;
36827;SDS011;22766;48.042;11.192;2022-07-26T13:23:16;2.88;;;1.00;;
36827;SDS011;22766;48.042;11.192;2022-07-26T13:25:47;1.80;;;0.98;;
36827;SDS011;22766;48.042;11.192;2022-07-26T13:28:15;1.95;;;1.08;;
36827;SDS011;22766;48.042;11.192;2022-07-26T13:30:42;2.00;;;1.42;;
36827;SDS011;22766;48.042;11.192;2022-07-26T13:33:10;1.50;;;1.13;;
36827;SDS011;22766;48.042;11.192;2022-07-26T13:35:37;4.18;;;1.30;;
36827;SDS011;22766;48.042;11.192;2022-07-26T13:38:06;2.17;;;1.10;;
36827;SDS011;22766;48.042;11.192;2022-07-26T13:40:34;1.20;;;0.90;;
36827;SDS011;22766;48.042;11.192;2022-07-26T13:43:01;1.40;;;1.00;;
36827;SDS011;22766;48.042;11.192;2022-07-26T13:45:29;3.42;;;0.90;;
36827;SDS011;22766;48.042;11.192;2022-07-26T13:47:56;1.50;;;0.88;;
36827;SDS011;22766;48.042;11.192;2022-07-26T13:50:25;3.00;;;1.27;;
36827;SDS011;22766;48.042;11.192;2022-07-26T13:52:53;2.90;;;1.25;;
36827;SDS011;22766;48.042;11.192;2022-07-26T13:55:23;1.50;;;1.10;;
36827;SDS011;22766;48.042;11.192;2022-07-26T13:57:50;1.30;;;1.02;;
36827;SDS011;22766;48.042;11.192;2022-07-26T14:00:26;2.08;;;1.55;;
36827;SDS011;22766;48.042;11.192;2022-07-26T14:02:55;2.53;;;0.98;;
36827;SDS011;22766;48.042;11.192;2022-07-26T14:05:23;1.55;;;1.00;;
36827;SDS011;22766;48.042;11.192;2022-07-26T14:07:50;3.63;;;1.58;;
36827;SDS011;22766;48.042;11.192;2022-07-26T14:10:18;2.20;;;1.20;;
36827;SDS011;22766;48.042;11.192;2022-07-26T14:12:46;2.00;;;1.10;;
36827;SDS011;22766;48.042;11.192;2022-07-26T14:15:13;1.92;;;1.20;;
36827;SDS011;22766;48.042;11.192;2022-07-26T14:17:47;2.38;;;1.42;;
36827;SDS011;22766;48.042;11.192;2022-07-26T14:20:13;2.35;;;1.27;;
36827;SDS011;22766;48.042;11.192;2022-07-26T14:22:42;2.13;;;1.20;;
36827;SDS011;22766;48.042;11.192;2022-07-26T14:25:10;1.55;;;1.20;;
36827;SDS011;22766;48.042;11.192;2022-07-26T14:27:37;1.45;;;1.08;;
36827;SDS011;22766;48.042;11.192;2022-07-26T14:30:04;2.10;;;1.30;;
36827;SDS011;22766;48.042;11.192;2022-07-26T14:32:32;2.03;;;1.30;;
36827;SDS011;22766;48.042;11.192;2022-07-26T14:34:58;2.95;;;1.38;;
36827;SDS011;22766;48.042;11.192;2022-07-26T14:37:25;3.30;;;1.33;;
36827;SDS011;22766;48.042;11.192;2022-07-26T14:40:11;2.97;;;1.50;;
36827;SDS011;22766;48.042;11.192;2022-07-26T14:42:42;3.38;;;1.50;;
36827;SDS011;22766;48.042;11.192;2022-07-26T14:45:10;6.30;;;1.40;;
36827;SDS011;22766;48.042;11.192;2022-07-26T14:47:38;2.33;;;1.25;;
36827;SDS011;22766;48.042;11.192;2022-07-26T14:50:05;3.00;;;1.40;;
36827;SDS011;22766;48.042;11.192;2022-07-26T14:52:38;1.95;;;1.15;;
36827;SDS011;22766;48.042;11.192;2022-07-26T14:55:08;2.15;;;1.33;;
36827;SDS011;22766;48.042;11.192;2022-07-26T14:57:35;1.70;;;1.10;;
36827;SDS011;22766;48.042;11.192;2022-07-26T15:00:06;5.93;;;1.27;;
36827;SDS011;22766;48.042;11.192;2022-07-26T15:02:39;2.05;;;1.20;;
36827;SDS011;22766;48.042;11.192;2022-07-26T15:05:10;3.65;;;1.42;;
36827;SDS011;22766;48.042;11.192;2022-07-26T15:07:39;3.45;;;1.35;;
36827;SDS011;22766;48.042;11.192;2022-07-26T15:10:07;3.20;;;1.20;;